Bar Harbor, Maine
Current Conditions -  °F | °C
As of 8:35 PM on Monday 22 Dec 2014 (Local Time) from KBHB Reporting Station
Overcast Overcast  
Wind Chill: 34°   Ceiling: 2000
Heat Index: 34°   Visibility: 10mi
Dew Point: 34°   Wind: 0mph
Humidity: 100%   Direction: NA
Pressure: 30.41"   Gusts: NA
Location:  44.39°N, 68.2°W
Report Text: KBHB 230135Z AUTO 00000KT 10SM OVC020 01/01 A3041 RMK AO1
Loading
Personal Weather Stations






























Interactive Weather Map New forecast layout! Learn more

10-Day Weather Forecast

Advertisements
Track Severe Weather on mobile